KRZL

Details ICAO KRZL
Name JASPER CO
Region United States
Timezone America/Chicago (UTC-6.0)
Plans Departing 3
Arriving 6
Stats Elevation 698 ft / 213 m (AMSL)
Location 40.947870° -87.183188°
Runways 2
Magnetic Variation 4.138° W
Sunrise 2017-12-15 13:07:57 UTC / 2017-12-15 07:07:57 Local
Sunset 2017-12-15 22:22:50 UTC / 2017-12-15 16:22:50 Local
Advertisement - Login to hide

Runways

ID Width Length Bearing (true) Bearing (mag) Surface Threshold Offset Overrun Length
09 150 ft / 46 m 1,925 ft / 587 m 90.00° 94.14° Grass 0 ft / 0 m 0 ft / 0 m
18 60 ft / 18 m 4,006 ft / 1,221 m 179.80° 183.94° Asphalt 0 ft / 0 m 0 ft / 0 m
27 150 ft / 46 m 1,925 ft / 587 m 270.00° 274.14° Grass 140 ft / 43 m 0 ft / 0 m
36 60 ft / 18 m 4,006 ft / 1,221 m 359.80° 3.94° Asphalt 0 ft / 0 m 0 ft / 0 m

Map

Weather


0- 5 10 15 20 25 30 35+ Temperature / ° C

Clouds and Precipitation
Forecast for 2017-12-15 12:00 UTC. Updated an hour ago

Ground ~20,000 ft ~40,000 ft Winds

METAR

KRZL 150835Z AUTO 23003KT 10SM BKN030 BKN036 OVC095 M08/M11 A3001 RMK AO2

TAF

Not found

Frequencies

Unicom 122.80 MHz CTAF/UNICOM
Warning: Do not use this data for real-world aviation or navigation. No guarantee of current accuracy is given.